Data for 11/22/2015

Time Sea-Level Adjusted Pressure Absolute Pressure Temperature Relative Humidity Dew Point   
(mb) (inHg) (mb) (inHg) (C) (F) (%) (C) (F)
00:05 1022 30.18 852 25.16 -2.2 28 53 -10.6 12.8
00:10 1023 30.21 852 25.16 -2.3 27.9 53 -10.7 12.7
00:15 1023 30.21 852 25.16 -2.1 28.2 51 -10.9 12.3
00:20 1023 30.21 852 25.16 -1.8 28.7 49 -11.3 11.7
00:25 1023 30.21 852 25.16 -1.9 28.5 53 -10.3 13.4
00:30 1023 30.21 852 25.16 -2 28.4 54 -10 13.9
00:35 1023 30.21 852 25.16 -2.1 28.2 55 -10 14
00:40 1023 30.21 852 25.16 -2.4 27.6 56 -10.1 13.9
00:45 1022 30.18 852 25.16 -2.3 27.9 57 -9.8 14.4
00:50 1022 30.18 852 25.16 -2 28.4 57 -9.5 14.9
00:55 1023 30.21 852 25.16 -2 28.5 55 -9.8 14.4
01:00 1023 30.21 852 25.16 -2.2 28.1 55 -10.1 13.9
01:05 1022 30.18 852 25.16 -2.3 27.9 55 -10.1 13.8
01:10 1022 30.18 852 25.16 -2.2 28.1 54 -10.2 13.6
01:15 1022 30.18 852 25.16 -2.1 28.2 54 -10.1 13.8
01:20 1022 30.18 852 25.16 -2.3 27.9 55 -10 13.9
01:25 1022 30.18 852 25.16 -2.2 28.1 54 -10.2 13.6
01:30 1022 30.18 852 25.16 -2.2 28.1 55 -10.1 13.9
01:35 1022 30.18 852 25.16 -2.2 28 54 -10.3 13.4
01:40 1022 30.18 852 25.16 -2.1 28.3 54 -10.3 13.5
01:45 1022 30.18 852 25.16 -2.2 28 56 -9.9 14.1
01:50 1022 30.18 852 25.16 -2.3 27.9 58 -9.6 14.8
01:55 1022 30.18 852 25.16 -2.1 28.2 57 -9.5 14.8
02:00 1022 30.18 852 25.16 -2.1 28.2 57 -9.5 14.9
02:05 1022 30.18 852 25.16 -2.2 28.1 56 -9.7 14.5
02:10 1022 30.18 851 25.13 -2.3 27.9 56 -9.9 14.1
02:15 1022 30.18 851 25.13 -2.1 28.3 56 -9.7 14.5
02:20 1022 30.18 851 25.13 -2.1 28.3 56 -9.7 14.6
02:25 1022 30.18 851 25.13 -2 28.3 56 -9.7 14.6
02:30 1022 30.18 851 25.13 -1.9 28.6 57 -9.3 15.3
02:35 1022 30.18 851 25.13 -1.8 28.8 56 -9.4 15
02:40 1022 30.18 851 25.13 -1.7 28.9 56 -9.4 15.1
02:45 1022 30.18 851 25.13 -1.7 28.9 56 -9.3 15.2
02:50 1022 30.18 851 25.13 -1.8 28.8 56 -9.4 15.1
02:55 1022 30.18 851 25.13 -2 28.4 56 -9.6 14.7
03:00 1022 30.18 851 25.13 -1.8 28.7 56 -9.5 14.9
03:05 1022 30.18 851 25.13 -1.6 29.1 55 -9.5 14.9
03:10 1022 30.18 851 25.13 -1.6 29 56 -9.4 15.1
03:15 1022 30.18 852 25.16 -1.8 28.8 56 -9.5 14.9
03:20 1022 30.18 851 25.13 -1.8 28.8 55 -9.6 14.7
03:25 1022 30.18 852 25.16 -1.7 28.9 56 -9.3 15.3
03:30 1022 30.18 852 25.16 -1.8 28.9 57 -9.2 15.4
03:35 1022 30.18 852 25.16 -2.1 28.3 58 -9.2 15.4
03:40 1022 30.18 852 25.16 -2.4 27.8 59 -9.2 15.4
03:45 1022 30.18 852 25.16 -2.7 27.1 60 -9.4 15.2
03:50 1022 30.18 852 25.16 -3 26.6 63 -9.2 15.4
03:55 1022 30.18 852 25.16 -3.5 25.7 64 -9.4 15
04:00 1022 30.18 852 25.16 -3.6 25.6 61 -10 14
04:05 1022 30.18 852 25.16 -3.4 25.8 60 -10.1 13.8
04:10 1022 30.18 852 25.16 -3.2 26.2 62 -9.5 14.8
04:15 1022 30.18 852 25.16 -3.1 26.4 62 -9.4 15
04:20 1022 30.18 852 25.16 -2.8 27 57 -10.3 13.5
04:25 1022 30.18 851 25.13 -1.9 28.7 55 -9.7 14.5
04:30 1022 30.18 851 25.13 -1.5 29.3 55 -9.4 15.1
04:35 1022 30.18 852 25.16 -1.7 28.9 50 -10.7 12.7
04:40 1022 30.18 851 25.13 -1.7 29 54 -9.9 14.2
04:45 1022 30.18 851 25.13 -2.4 27.7 59 -9.3 15.2
04:50 1022 30.18 851 25.13 -2.1 28.3 57 -9.4 15
04:55 1022 30.18 851 25.13 -2 28.4 57 -9.4 15.2
05:00 1022 30.18 851 25.13 -1.5 29.2 56 -9.2 15.4
05:05 1022 30.18 851 25.13 -1.9 28.6 60 -8.6 16.4
05:10 1022 30.18 851 25.13 -2.7 27.1 63 -8.8 16.2
05:15 1022 30.18 851 25.13 -2.8 27 61 -9.3 15.3
05:20 1022 30.18 851 25.13 -2.8 26.9 62 -9 15.7
05:25 1022 30.18 851 25.13 -3.2 26.3 62 -9.5 14.9
05:30 1022 30.18 851 25.13 -3.2 26.3 60 -9.9 14.3
05:35 1022 30.18 851 25.13 -3.3 26.1 59 -10.3 13.5
05:40 1022 30.18 851 25.13 -3.3 26.1 59 -10.2 13.7
05:45 1022 30.18 851 25.13 -3 26.5 58 -10.1 13.8
05:50 1022 30.18 851 25.13 -3.4 25.9 56 -10.9 12.4
05:55 1022 30.18 851 25.13 -3.2 26.2 57 -10.5 13.1
06:00 1022 30.18 851 25.13 -3.1 26.4 53 -11.4 11.4
06:05 1022 30.18 851 25.13 -2.7 27.2 53 -11.1 12.1
06:10 1022 30.18 851 25.13 -2.8 27 52 -11.3 11.7
06:15 1022 30.18 851 25.13 -2.6 27.3 51 -11.3 11.6
06:20 1022 30.18 851 25.13 -2.4 27.8 53 -10.7 12.8
06:25 1022 30.18 851 25.13 -2.6 27.4 53 -11 12.2
06:30 1022 30.18 851 25.13 -2.8 27 54 -10.9 12.3
06:35 1022 30.18 851 25.13 -3 26.5 58 -10.2 13.6
06:40 1022 30.18 851 25.13 -3.1 26.4 60 -9.9 14.3
06:45 1022 30.18 851 25.13 -3 26.6 58 -10.1 13.9
06:50 1022 30.18 851 25.13 -2.7 27.1 59 -9.7 14.5
06:55 1022 30.18 851 25.13 -1.9 28.7 54 -10 14
07:00 1022 30.18 851 25.13 -1.3 29.6 55 -9.2 15.4
07:05 1022 30.18 851 25.13 -1.3 29.6 56 -9.1 15.7
07:10 1022 30.18 851 25.13 -1.8 28.8 55 -9.7 14.6
07:15 1022 30.18 851 25.13 -1.9 28.5 54 -10 14.1
07:20 1022 30.18 851 25.13 -2.5 27.6 58 -9.7 14.6
07:25 1022 30.18 851 25.13 -2.6 27.3 55 -10.6 13
07:30 1022 30.18 851 25.13 -2.2 28.1 54 -10.4 13.3
07:35 1022 30.18 851 25.13 -2.5 27.5 56 -10.2 13.7
07:40 1022 30.18 851 25.13 -2.5 27.6 55 -10.3 13.5
07:45 1022 30.18 851 25.13 -2.4 27.6 55 -10.4 13.3
07:50 1022 30.18 851 25.13 -2.5 27.5 54 -10.6 13
07:55 1022 30.18 851 25.13 -2.4 27.6 54 -10.5 13
08:00 1022 30.18 851 25.13 -2.5 27.5 54 -10.6 13
08:05 1022 30.18 851 25.13 -2.5 27.5 54 -10.5 13.1
08:10 1022 30.18 851 25.13 -2.7 27.1 56 -10.4 13.2
08:15 1022 30.18 851 25.13 -3.1 26.3 57 -10.4 13.3
08:20 1022 30.18 851 25.13 -3.5 25.7 59 -10.4 13.2
08:25 1022 30.18 851 25.13 -3.5 25.6 58 -10.7 12.8
08:30 1022 30.18 851 25.13 -3.4 25.9 58 -10.5 13.1
08:35 1022 30.18 851 25.13 -3.4 25.9 58 -10.5 13.1
08:40 1022 30.18 851 25.13 -3.5 25.6 59 -10.5 13.2
08:45 1022 30.18 851 25.13 -3.5 25.7 58 -10.5 13.1
08:50 1022 30.18 851 25.13 -3.5 25.8 59 -10.4 13.4
08:55 1022 30.18 852 25.16 -3.7 25.4 59 -10.5 13
09:00 1022 30.18 852 25.16 -3.3 26.1 58 -10.4 13.2
09:05 1022 30.18 852 25.16 -3.2 26.3 57 -10.5 13
09:10 1022 30.18 852 25.16 -2.9 26.8 56 -10.5 13
09:15 1022 30.18 851 25.13 -2.8 27 56 -10.5 13.1
09:20 1022 30.18 852 25.16 -2.8 27 57 -10.2 13.6
09:25 1022 30.18 851 25.13 -2.9 26.8 55 -10.7 12.7
09:30 1022 30.18 851 25.13 -2.6 27.3 57 -10 14
09:35 1022 30.18 852 25.16 -2.7 27.1 57 -10.2 13.6
09:40 1022 30.18 852 25.16 -2.1 28.1 54 -10.3 13.5
09:45 1022 30.18 852 25.16 -1.7 28.9 52 -10.3 13.4
09:50 1022 30.18 851 25.13 -1.5 29.4 51 -10.3 13.4
09:55 1022 30.18 851 25.13 -1.5 29.3 53 -9.8 14.3
10:00 1022 30.18 851 25.13 -1.5 29.4 53 -10 14.1
10:05 1022 30.18 851 25.13 -1.5 29.4 52 -10.1 13.9
10:10 1022 30.18 851 25.13 -1.5 29.3 53 -9.9 14.1
10:15 1022 30.18 851 25.13 -1.2 29.8 50 -10.3 13.4
10:20 1022 30.18 851 25.13 -0.3 31.4 48 -10 14
10:25 1022 30.18 851 25.13 0.4 32.7 47 -9.8 14.4
10:30 1022 30.18 851 25.13 0.3 32.6 48 -9.5 14.9
10:35 1022 30.18 851 25.13 0.4 32.8 47 -9.6 14.7
10:40 1022 30.18 851 25.13 0.6 33 46 -9.8 14.4
10:45 1022 30.18 851 25.13 0.7 33.2 46 -9.5 14.8
10:50 1022 30.18 851 25.13 1 33.8 45 -9.5 14.9
10:55 1022 30.18 851 25.13 1.4 34.5 44 -9.6 14.8
11:00 1022 30.18 851 25.13 1.8 35.2 44 -9.2 15.4
11:05 1022 30.18 851 25.13 2.1 35.8 43 -9.1 15.6
11:10 1022 30.18 851 25.13 2.3 36.2 42 -9.3 15.3
11:15 1022 30.18 851 25.13 2.7 36.8 42 -8.9 16
11:20 1022 30.18 851 25.13 2.6 36.7 43 -8.8 16.2
11:25 1022 30.18 851 25.13 2.9 37.2 41 -9.2 15.4
11:30 1022 30.18 851 25.13 3.1 37.5 42 -8.7 16.4
11:35 1022 30.18 851 25.13 2.9 37.3 43 -8.5 16.6
11:40 1022 30.18 851 25.13 3 37.5 41 -8.9 16
11:45 1022 30.18 851 25.13 3.1 37.6 42 -8.5 16.7
11:50 1022 30.18 851 25.13 3 37.4 42 -8.8 16.2
11:55 1022 30.18 851 25.13 3.3 38 42 -8.5 16.7
12:00 1022 30.18 851 25.13 3.3 38 41 -8.7 16.3
12:05 1022 30.18 851 25.13 2.9 37.3 42 -8.6 16.4
12:10 1022 30.18 851 25.13 3 37.4 42 -8.6 16.5
12:15 1022 30.18 851 25.13 3.2 37.7 42 -8.5 16.8
12:20 1022 30.18 851 25.13 3.4 38.2 42 -8.2 17.2
12:25 1022 30.18 851 25.13 3.7 38.7 41 -8.4 16.8
12:30 1021 30.15 851 25.13 4 39.2 42 -7.9 17.8
12:35 1021 30.15 851 25.13 4.3 39.8 42 -7.4 18.7
12:40 1021 30.15 851 25.13 4.6 40.2 41 -7.7 18.2
12:45 1021 30.15 851 25.13 5 41 39 -8 17.7
12:50 1021 30.15 851 25.13 5 41.1 38 -8.2 17.3
12:55 1021 30.15 851 25.13 5.4 41.7 35 -9 15.8
13:00 1021 30.15 851 25.13 5.3 41.6 34 -9.4 15.1
13:05 1021 30.15 851 25.13 4.9 40.9 38 -8.3 17.1
13:10 1021 30.15 851 25.13 5.2 41.3 33 -9.9 14.2
13:15 1021 30.15 850 25.1 5.3 41.6 33 -9.7 14.5
13:20 1021 30.15 850 25.1 5.3 41.5 33 -9.7 14.6
13:25 1021 30.15 850 25.1 5.2 41.4 34 -9.5 14.9
13:30 1021 30.15 850 25.1 4.9 40.9 35 -9.4 15.1
13:35 1021 30.15 850 25.1 4.6 40.3 37 -8.8 16.1
13:40 1021 30.15 850 25.1 4.2 39.5 37 -9.2 15.5
13:45 1021 30.15 850 25.1 3.7 38.7 40 -8.7 16.3
13:50 1021 30.15 850 25.1 3.9 39.1 41 -8 17.6
13:55 1021 30.15 850 25.1 3.6 38.4 42 -8.2 17.3
14:00 1021 30.15 850 25.1 3.5 38.3 44 -7.7 18.1
14:05 1021 30.15 850 25.1 3.8 38.9 43 -7.7 18.1
14:10 1021 30.15 850 25.1 3.9 39 43 -7.7 18.2
14:15 1021 30.15 850 25.1 4.3 39.7 41 -7.7 18.1
14:20 1021 30.15 850 25.1 4.5 40.2 33 -10.6 13
14:25 1021 30.15 850 25.1 4.9 40.9 32 -10.6 12.9
14:30 1021 30.15 850 25.1 5.7 42.2 28 -11.4 11.6
14:35 1021 30.15 850 25.1 6.6 43.8 28 -10.6 12.9
14:40 1021 30.15 850 25.1 7.1 44.7 28 -10.3 13.5
14:45 1020 30.12 850 25.1 7.1 44.7 26 -11.3 11.6
14:50 1020 30.12 850 25.1 7.4 45.3 26 -11 12.2
14:55 1020 30.12 849 25.07 8 46.4 24 -11.3 11.7
15:00 1020 30.12 849 25.07 8.3 47 25 -10.8 12.5
15:05 1020 30.12 849 25.07 8.6 47.5 25 -10.5 13.1
15:10 1020 30.12 849 25.07 8.1 46.5 25 -10.6 12.9
15:15 1020 30.12 849 25.07 7.8 46 27 -10.2 13.6
15:20 1020 30.12 849 25.07 7.6 45.7 25 -11 12.2
15:25 1020 30.12 849 25.07 7.8 46 26 -10.8 12.6
15:30 1020 30.12 849 25.07 8.2 46.8 27 -9.8 14.3
15:35 1020 30.12 849 25.07 8.2 46.7 27 -9.7 14.5
15:40 1020 30.12 849 25.07 8.2 46.7 26 -10 13.9
15:45 1020 30.12 849 25.07 8.5 47.4 26 -9.9 14.2
15:50 1020 30.12 849 25.07 8.9 48 25 -10.2 13.6
15:55 1020 30.12 849 25.07 9 48.1 25 -10.1 13.9
16:00 1020 30.12 849 25.07 8.9 48 26 -9.8 14.3
16:05 1020 30.12 849 25.07 8.9 48 24 -10.4 13.3
16:10 1020 30.12 849 25.07 9.1 48.4 25 -10.1 13.8
16:15 1020 30.12 849 25.07 9 48.1 25 -10 14
16:20 1020 30.12 849 25.07 8.9 47.9 26 -9.8 14.3
16:25 1020 30.12 849 25.07 8.7 47.7 27 -9.2 15.4
16:30 1019 30.09 849 25.07 8.1 46.5 29 -8.9 16
16:35 1019 30.09 849 25.07 7.6 45.6 29 -9.3 15.2
16:40 1019 30.09 849 25.07 7.7 45.8 29 -9.2 15.4
16:45 1019 30.09 849 25.07 7.7 45.8 29 -9.5 15
16:50 1019 30.09 849 25.07 7.8 46 30 -8.7 16.4
16:55 1019 30.09 849 25.07 7.7 45.8 30 -8.7 16.4
17:00 1019 30.09 849 25.07 7.4 45.3 32 -8.3 17
17:05 1019 30.09 849 25.07 7.3 45.1 32 -8.5 16.8
17:10 1019 30.09 848 25.04 7 44.7 33 -8.3 17
17:15 1019 30.09 848 25.04 6.8 44.3 34 -7.9 17.8
17:20 1019 30.09 848 25.04 6.9 44.4 35 -7.6 18.4
17:25 1019 30.09 848 25.04 6.4 43.5 39 -6.6 20.2
17:30 1019 30.09 848 25.04 5.8 42.5 42 -6.2 20.9
17:35 1019 30.09 848 25.04 5.2 41.4 45 -5.8 21.6
17:40 1019 30.09 848 25.04 4.8 40.6 47 -5.5 22.1
17:45 1019 30.09 848 25.04 4.5 40.2 47 -5.8 21.6
17:50 1019 30.09 848 25.04 4.4 39.8 48 -5.8 21.6
17:55 1019 30.09 848 25.04 4.3 39.7 49 -5.6 21.9
18:00 1019 30.09 848 25.04 3.9 39 50 -5.6 22
18:05 1019 30.09 848 25.04 3.5 38.3 52 -5.4 22.3
18:10 1019 30.09 848 25.04 3.1 37.7 54 -5.2 22.6
18:15 1019 30.09 848 25.04 2.8 37.1 56 -5.2 22.7
18:20 1019 30.09 848 25.04 2.9 37.3 55 -5.3 22.5
18:25 1019 30.09 848 25.04 2.9 37.2 55 -5.3 22.4
18:30 1019 30.09 848 25.04 3.1 37.7 54 -5.3 22.5
18:35 1019 30.09 848 25.04 2.8 37.1 58 -4.6 23.8
18:40 1019 30.09 848 25.04 2.4 36.3 56 -5.5 22.1
18:45 1019 30.09 848 25.04 2.6 36.7 53 -6 21.3
18:50 1019 30.09 848 25.04 2.6 36.8 54 -5.7 21.7
18:55 1019 30.09 848 25.04 2.8 37 53 -6 21.2
19:00 1019 30.09 848 25.04 2.4 36.3 57 -5.2 22.7
19:05 1019 30.09 848 25.04 1.9 35.4 54 -6.4 20.4
19:10 1019 30.09 848 25.04 2.6 36.7 49 -7 19.5
19:15 1019 30.09 848 25.04 2.9 37.3 49 -6.6 20
19:20 1019 30.09 848 25.04 2.8 37 49 -6.8 19.8
19:25 1019 30.09 848 25.04 2.7 36.8 49 -6.9 19.6
19:30 1019 30.09 848 25.04 2.4 36.3 50 -6.9 19.6
19:35 1019 30.09 848 25.04 2.2 36 48 -7.6 18.4
19:40 1019 30.09 848 25.04 2.4 36.3 50 -7 19.5
19:45 1019 30.09 848 25.04 2.6 36.7 53 -6 21.2
19:50 1019 30.09 848 25.04 2.2 36 57 -5.4 22.2
19:55 1019 30.09 848 25.04 1.8 35.2 56 -6.1 21.1
20:00 1019 30.09 848 25.04 1.8 35.2 53 -6.9 19.6
20:05 1019 30.09 848 25.04 1.7 35.1 53 -6.8 19.7
20:10 1019 30.09 848 25.04 2 35.6 53 -6.6 20.2
20:15 1019 30.09 848 25.04 1.9 35.4 51 -7.2 19.1
20:20 1018 30.06 848 25.04 1.8 35.3 57 -5.7 21.7
20:25 1018 30.06 848 25.04 1.9 35.4 59 -5.4 22.3
20:30 1018 30.06 848 25.04 1.7 35 58 -5.7 21.8
20:35 1018 30.06 848 25.04 1.4 34.5 58 -6 21.2
20:40 1018 30.06 848 25.04 1 33.8 60 -5.9 21.4
20:45 1018 30.06 847 25.01 0.7 33.2 61 -6.1 21.1
20:50 1018 30.06 847 25.01 0.5 32.9 59 -6.5 20.2
20:55 1018 30.06 847 25.01 1.4 34.6 56 -6.3 20.6
21:00 1018 30.06 847 25.01 1.7 35.1 55 -6.4 20.5
21:05 1018 30.06 847 25.01 1.8 35.3 51 -7.3 18.8
21:10 1018 30.06 847 25.01 2.1 35.7 50 -7.4 18.8
21:15 1018 30.06 847 25.01 1.9 35.4 50 -7.6 18.4
21:20 1018 30.06 847 25.01 1.9 35.4 50 -7.5 18.5
21:25 1018 30.06 847 25.01 1.6 34.9 51 -7.5 18.5
21:30 1018 30.06 847 25.01 1.4 34.4 52 -7.4 18.6
21:35 1018 30.06 847 25.01 1.1 34.1 52 -7.6 18.4
21:40 1018 30.06 847 25.01 0.9 33.7 53 -7.5 18.5
21:45 1018 30.06 847 25.01 0.8 33.4 53 -7.7 18.2
21:50 1018 30.06 847 25.01 1 33.9 51 -8 17.7
21:55 1018 30.06 847 25.01 1.4 34.6 50 -7.8 17.9
22:00 1018 30.06 847 25.01 1.4 34.4 51 -7.7 18.2
22:05 1018 30.06 847 25.01 1 33.8 52 -7.9 17.8
22:10 1018 30.06 847 25.01 1.1 33.9 51 -8 17.6
22:15 1018 30.06 847 25.01 1.3 34.3 51 -7.8 17.9
22:20 1018 30.06 847 25.01 1.2 34.1 51 -7.8 17.9
22:25 1018 30.06 847 25.01 1.1 33.9 50 -8.1 17.4
22:30 1018 30.06 847 25.01 1.3 34.4 50 -7.9 17.7
22:35 1018 30.06 847 25.01 1.3 34.3 50 -8 17.6
22:40 1018 30.06 847 25.01 1.5 34.6 49 -8 17.6
22:45 1018 30.06 847 25.01 1.2 34.2 50 -8 17.7
22:50 1018 30.06 847 25.01 0.8 33.5 52 -7.9 17.7
22:55 1018 30.06 847 25.01 0.5 32.9 55 -7.6 18.3
23:00 1018 30.06 847 25.01 0.6 33 52 -8.3 17.1
23:05 1018 30.06 847 25.01 1.2 34.1 51 -7.8 18
23:10 1018 30.06 847 25.01 1.2 34.1 50 -8.2 17.2
23:15 1018 30.06 847 25.01 1.1 34 50 -8.2 17.3
23:20 1018 30.06 847 25.01 1 33.8 50 -8.4 16.9
23:25 1018 30.06 847 25.01 0.9 33.6 51 -8.2 17.2
23:30 1018 30.06 847 25.01 0.8 33.5 50 -8.5 16.7
23:35 1018 30.06 847 25.01 1.1 34 49 -8.6 16.6
23:40 1018 30.06 847 25.01 1 33.8 49 -8.6 16.6
23:45 1018 30.06 847 25.01 1 33.7 49 -8.5 16.7
23:50 1018 30.06 847 25.01 0.5 32.9 53 -8.1 17.5
23:55 1018 30.06 847 25.01 -0.4 31.3 56 -8.2 17.2
24:00 1018 30.06 847 25.01 -0.2 31.6 55 -8.2 17.2